createdAt,value
2018-08-09T00:01:36.166Z,1012
2018-08-09T00:07:01.326Z,1012
2018-08-09T00:12:32.145Z,1012
2018-08-09T00:18:02.841Z,1012
2018-08-09T00:23:32.263Z,1012
2018-08-09T00:29:06.872Z,1012
2018-08-09T00:34:32.436Z,1012
2018-08-09T00:40:02.115Z,1012
2018-08-09T00:45:31.909Z,1012
2018-08-09T00:51:02.208Z,1012
2018-08-09T00:56:31.804Z,1012
2018-08-09T01:02:02.771Z,1012
2018-08-09T01:07:37.990Z,1013
2018-08-09T01:13:02.592Z,1013
2018-08-09T01:18:33.177Z,1013
2018-08-09T01:24:02.894Z,1013
2018-08-09T01:29:38.602Z,1013
2018-08-09T01:35:03.892Z,1013
2018-08-09T01:40:33.517Z,1013
2018-08-09T01:46:09.123Z,1013
2018-08-09T01:51:34.692Z,1013
2018-08-09T01:57:05.328Z,1013
2018-08-09T02:02:35.894Z,1013
2018-08-09T02:08:06.800Z,1013
2018-08-09T02:13:37.080Z,1013
2018-08-09T02:19:06.941Z,1013
2018-08-09T02:24:36.251Z,1013
2018-08-09T02:30:06.117Z,1013
2018-08-09T02:35:40.544Z,1013
2018-08-09T02:41:06.049Z,1013
2018-08-09T02:46:35.684Z,1013
2018-08-09T02:52:05.303Z,1013
2018-08-09T02:57:36.222Z,1013
2018-08-09T03:03:11.420Z,1013
2018-08-09T03:08:36.971Z,1013
2018-08-09T03:14:06.566Z,1013
2018-08-09T03:19:36.143Z,1013
2018-08-09T03:25:05.698Z,1013
2018-08-09T03:30:36.327Z,1013
2018-08-09T03:36:05.830Z,1013
2018-08-09T03:41:40.411Z,1013
2018-08-09T03:47:05.919Z,1013
2018-08-09T03:52:35.537Z,1013
2018-08-09T03:58:04.973Z,1013
2018-08-09T04:03:40.226Z,1013
2018-08-09T04:09:04.025Z,1013
2018-08-09T04:14:33.769Z,1013
2018-08-09T04:20:04.553Z,1013
2018-08-09T04:25:34.575Z,1013
2018-08-09T04:31:05.096Z,1013
2018-08-09T04:36:39.656Z,1013
2018-08-09T04:42:04.258Z,1013
2018-08-09T04:47:34.788Z,1013
2018-08-09T04:53:04.804Z,1013
2018-08-09T04:58:34.110Z,1013
2018-08-09T05:04:03.720Z,1013
2018-08-09T05:09:34.309Z,1013
2018-08-09T05:15:04.596Z,1013
2018-08-09T05:20:34.528Z,1013
2018-08-09T05:26:04.838Z,1013
2018-08-09T05:31:35.342Z,1013
2018-08-09T05:37:04.957Z,1013
2018-08-09T05:42:39.708Z,1013
2018-08-09T05:48:05.503Z,1013
2018-08-09T05:53:35.848Z,1013
2018-08-09T05:59:10.461Z,1013
2018-08-09T06:04:36.067Z,1013
2018-08-09T06:10:06.748Z,1013
2018-08-09T06:15:36.430Z,1013
2018-08-09T06:21:06.156Z,1014
2018-08-09T06:26:37.151Z,1014
2018-08-09T06:32:06.561Z,1014
2018-08-09T06:37:36.292Z,1014
2018-08-09T06:43:05.977Z,1014
2018-08-09T06:48:35.722Z,1014
2018-08-09T06:54:05.465Z,1014
2018-08-09T06:59:36.187Z,1014
2018-08-09T07:05:06.201Z,1014
2018-08-09T07:10:35.980Z,1014
2018-08-09T07:16:05.714Z,1014
2018-08-09T07:21:41.211Z,1014
2018-08-09T07:27:06.041Z,1014
2018-08-09T07:32:36.900Z,1014
2018-08-09T07:38:13.232Z,1014
2018-08-09T07:43:38.879Z,1014
2018-08-09T07:49:08.398Z,1014
2018-08-09T07:54:43.349Z,1014
2018-08-09T08:00:09.155Z,1014
2018-08-09T08:05:40.020Z,1013
2018-08-09T08:11:11.174Z,1013
2018-08-09T08:16:40.815Z,1013
2018-08-09T08:22:10.740Z,1013
2018-08-09T08:27:41.330Z,1013
2018-08-09T08:27:46.017Z,1013
2018-08-09T08:33:15.637Z,1013
2018-08-09T08:38:40.564Z,1013
2018-08-09T08:44:11.593Z,1013
2018-08-09T08:49:42.747Z,1013
2018-08-09T08:55:18.956Z,1013
2018-08-09T09:00:44.055Z,1013
2018-08-09T09:06:13.581Z,1013
2018-08-09T09:11:49.790Z,1013
2018-08-09T09:17:15.928Z,1013
2018-08-09T09:22:46.876Z,1013
2018-08-09T09:28:17.745Z,1013
2018-08-09T09:33:49.083Z,1013
2018-08-09T09:39:19.941Z,1013
2018-08-09T09:44:50.273Z,1013
2018-08-09T09:50:21.439Z,1013
2018-08-09T09:55:52.460Z,1013
2018-08-09T10:01:23.530Z,1013
2018-08-09T10:06:54.866Z,1013
2018-08-09T10:12:25.807Z,1013
2018-08-09T10:17:56.253Z,1013
2018-08-09T10:23:27.342Z,1013
2018-08-09T10:28:58.571Z,1012
2018-08-09T10:34:33.517Z,1012
2018-08-09T10:39:58.743Z,1012
2018-08-09T10:39:59.162Z,1012
2018-08-09T10:45:30.058Z,1012
2018-08-09T10:51:00.593Z,1012
2018-08-09T10:56:31.920Z,1012
2018-08-09T11:02:03.467Z,1012
2018-08-09T11:07:34.377Z,1012
2018-08-09T11:13:09.906Z,1012
2018-08-09T11:18:35.135Z,1012
2018-08-09T11:24:05.404Z,1012
2018-08-09T11:24:05.767Z,1012
2018-08-09T11:29:35.971Z,1012
2018-08-09T11:35:05.997Z,1012
2018-08-09T11:40:42.673Z,1012
2018-08-09T11:46:08.995Z,1012
2018-08-09T11:51:39.300Z,1012
2018-08-09T11:57:10.358Z,1012
2018-08-09T12:02:41.489Z,1012
2018-08-09T12:08:11.272Z,1012
2018-08-09T12:13:46.396Z,1012
2018-08-09T12:19:17.635Z,1012
2018-08-09T12:24:43.004Z,1011
2018-08-09T12:30:14.398Z,1011
2018-08-09T12:35:45.750Z,1011
2018-08-09T12:41:17.060Z,1011
2018-08-09T12:46:48.373Z,1011
2018-08-09T12:52:19.913Z,1011
2018-08-09T12:57:50.977Z,1011
2018-08-09T13:03:21.598Z,1011
2018-08-09T13:08:57.565Z,1011
2018-08-09T13:14:24.090Z,1011
2018-08-09T13:19:55.147Z,1011
2018-08-09T13:25:25.547Z,1011
2018-08-09T13:30:56.876Z,1010
2018-08-09T13:36:27.319Z,1010
2018-08-09T13:41:57.476Z,1010
2018-08-09T13:47:28.127Z,1010
2018-08-09T13:52:58.441Z,1010
2018-08-09T13:58:28.624Z,1010
2018-08-09T14:03:58.772Z,1010
2018-08-09T14:09:34.087Z,1010
2018-08-09T14:15:04.364Z,1010
2018-08-09T14:20:29.864Z,1010
2018-08-09T14:26:05.169Z,1010
2018-08-09T14:31:30.620Z,1010
2018-08-09T14:37:01.008Z,1009
2018-08-09T14:42:32.382Z,1009
2018-08-09T14:48:03.532Z,1009
2018-08-09T14:53:34.833Z,1009
2018-08-09T14:59:06.310Z,1009
2018-08-09T15:04:36.781Z,1009
2018-08-09T15:10:06.449Z,1009
2018-08-09T15:15:36.561Z,1008
2018-08-09T15:21:08.001Z,1008
2018-08-09T15:26:37.774Z,1008
2018-08-09T15:32:08.093Z,1008
2018-08-09T15:37:43.202Z,1008
2018-08-09T15:43:13.038Z,1007
2018-08-09T15:48:38.264Z,1007
2018-08-09T15:54:08.395Z,1007
2018-08-09T15:59:39.459Z,1007
2018-08-09T16:05:09.578Z,1007
2018-08-09T16:10:45.584Z,1007
2018-08-09T16:16:11.958Z,1007
2018-08-09T16:16:12.964Z,1007
2018-08-09T16:21:42.936Z,1007
2018-08-09T16:21:49.379Z,1007
2018-08-09T16:27:13.976Z,1007
2018-08-09T16:32:44.998Z,1007
2018-08-09T16:38:14.686Z,1007
2018-08-09T16:44:13.736Z,1007
2018-08-09T16:49:15.924Z,1006
2018-08-09T16:54:46.687Z,1006
2018-08-09T17:00:18.308Z,1006
2018-08-09T17:05:49.020Z,1006
2018-08-09T17:11:18.809Z,1006
2018-08-09T17:16:54.118Z,1006
2018-08-09T17:22:18.921Z,1006
2018-08-09T17:27:49.931Z,1005
2018-08-09T17:33:20.992Z,1005
2018-08-09T17:38:56.275Z,1005
2018-08-09T17:44:20.962Z,1005
2018-08-09T17:49:57.169Z,1004
2018-08-09T17:55:22.013Z,1004
2018-08-09T18:01:08.592Z,1004
2018-08-09T18:06:22.932Z,1004
2018-08-09T18:11:57.009Z,1004
2018-08-09T18:17:22.284Z,1004
2018-08-09T18:17:22.615Z,1004
2018-08-09T18:22:58.053Z,1005
2018-08-09T18:28:23.239Z,1006
2018-08-09T18:33:52.882Z,1006
2018-08-09T18:39:28.723Z,1005
2018-08-09T18:44:53.599Z,1005
2018-08-09T18:50:24.358Z,1005
2018-08-09T18:55:54.344Z,1005
2018-08-09T19:01:30.109Z,1005
2018-08-09T19:07:06.441Z,1005
2018-08-09T19:12:27.228Z,1005
2018-08-09T19:17:57.305Z,1004
2018-08-09T19:23:42.237Z,1004
2018-08-09T19:28:57.874Z,1004
2018-08-09T19:34:28.392Z,1004
2018-08-09T19:39:58.515Z,1004
2018-08-09T19:45:33.280Z,1004
2018-08-09T19:51:03.690Z,1004
2018-08-09T19:56:28.440Z,1004
2018-08-09T20:01:58.415Z,1004
2018-08-09T20:07:33.946Z,1004
2018-08-09T20:12:59.769Z,1004
2018-08-09T20:18:29.406Z,1004
2018-08-09T20:24:15.546Z,1004
2018-08-09T20:29:34.880Z,1004
2018-08-09T20:35:05.700Z,1004
2018-08-09T20:40:31.585Z,1004
2018-08-09T20:46:02.323Z,1004
2018-08-09T20:51:32.012Z,1004
2018-08-09T20:57:02.473Z,1004
2018-08-09T21:02:32.446Z,1004
2018-08-09T21:08:08.203Z,1004
2018-08-09T21:13:32.662Z,1003
2018-08-09T21:19:03.382Z,1003
2018-08-09T21:24:39.391Z,1003
2018-08-09T21:30:04.807Z,1003
2018-08-09T21:35:39.577Z,1003
2018-08-09T21:41:04.239Z,1003
2018-08-09T21:46:34.260Z,1003
2018-08-09T21:52:04.679Z,1003
2018-08-09T21:57:35.410Z,1003
2018-08-09T22:03:05.134Z,1003
2018-08-09T22:08:40.835Z,1003
2018-08-09T22:14:10.245Z,1003
2018-08-09T22:19:36.527Z,1003
2018-08-09T22:25:12.087Z,1003
2018-08-09T22:30:37.713Z,1003
2018-08-09T22:36:07.418Z,1003
2018-08-09T22:41:37.435Z,1003
2018-08-09T22:47:06.867Z,1003
2018-08-09T22:52:37.901Z,1003
2018-08-09T22:58:07.299Z,1003
2018-08-09T23:03:38.077Z,1003
2018-08-09T23:09:14.092Z,1002
2018-08-09T23:14:39.449Z,1002
2018-08-09T23:20:10.337Z,1002
2018-08-09T23:25:40.894Z,1002
2018-08-09T23:31:11.636Z,1002
2018-08-09T23:36:41.675Z,1002
2018-08-09T23:42:17.106Z,1002
2018-08-09T23:47:43.054Z,1002
2018-08-09T23:53:18.595Z,1002
2018-08-09T23:58:43.236Z,1002
